Jackson, Pennsylvania
Current Conditions -  °F | °C
As of 4:45 PM on Wednesday 17 Dec 2014 (Local Time) from KBGM Reporting Station
Light Snow Light Snow  
Wind Chill: 25°   Ceiling: 5000
Heat Index: 33°   Visibility: 6mi
Dew Point: 32°   Wind: 9mph
Humidity: 96%   Direction: 290°WNW
Pressure: 29.85"   Gusts: 18mph
Location:  41.83°N, 75.59°W
Report Text: KBGM 172145Z 29008G16KT 6SM -SN BR SCT004 SCT010 OVC050 01/00 A2985 RMK AO2 P0001 T00060000
Loading
Personal Weather Stations






























Interactive Weather Map New forecast layout! Learn more

10-Day Weather Forecast

Advertisements
Track Severe Weather on mobile